sensor_id;sensor_type;location;lat;lon;timestamp;P1;durP1;ratioP1;P2;durP2;ratioP2
14799;SDS011;7491;57.750;11.970;2022-12-01T00:00:04;5.78;;;4.75;;
14799;SDS011;7491;57.750;11.970;2022-12-01T00:02:32;5.70;;;3.95;;
14799;SDS011;7491;57.750;11.970;2022-12-01T00:04:58;5.65;;;4.43;;
14799;SDS011;7491;57.750;11.970;2022-12-01T00:07:25;6.78;;;4.80;;
14799;SDS011;7491;57.750;11.970;2022-12-01T00:09:53;6.35;;;4.80;;
14799;SDS011;7491;57.750;11.970;2022-12-01T00:12:37;4.78;;;3.83;;
14799;SDS011;7491;57.750;11.970;2022-12-01T00:15:07;7.55;;;5.00;;
14799;SDS011;7491;57.750;11.970;2022-12-01T00:17:34;6.43;;;4.82;;
14799;SDS011;7491;57.750;11.970;2022-12-01T00:20:01;7.00;;;4.95;;
14799;SDS011;7491;57.750;11.970;2022-12-01T00:22:28;6.65;;;4.63;;
14799;SDS011;7491;57.750;11.970;2022-12-01T00:24:56;6.93;;;5.18;;
14799;SDS011;7491;57.750;11.970;2022-12-01T00:27:23;9.45;;;5.53;;
14799;SDS011;7491;57.750;11.970;2022-12-01T00:29:49;6.60;;;5.18;;
14799;SDS011;7491;57.750;11.970;2022-12-01T00:32:16;7.63;;;5.07;;
14799;SDS011;7491;57.750;11.970;2022-12-01T00:34:43;7.00;;;5.43;;
14799;SDS011;7491;57.750;11.970;2022-12-01T00:37:09;6.70;;;5.07;;
14799;SDS011;7491;57.750;11.970;2022-12-01T00:39:36;7.95;;;5.18;;
14799;SDS011;7491;57.750;11.970;2022-12-01T00:42:04;8.02;;;5.20;;
14799;SDS011;7491;57.750;11.970;2022-12-01T00:44:30;5.43;;;4.45;;
14799;SDS011;7491;57.750;11.970;2022-12-01T00:46:57;8.80;;;5.82;;
14799;SDS011;7491;57.750;11.970;2022-12-01T00:49:24;8.23;;;5.25;;
14799;SDS011;7491;57.750;11.970;2022-12-01T00:51:50;8.20;;;7.15;;
14799;SDS011;7491;57.750;11.970;2022-12-01T00:54:17;7.63;;;6.07;;
14799;SDS011;7491;57.750;11.970;2022-12-01T00:56:43;9.20;;;5.32;;
14799;SDS011;7491;57.750;11.970;2022-12-01T00:59:11;7.50;;;5.60;;
14799;SDS011;7491;57.750;11.970;2022-12-01T01:01:38;7.93;;;5.60;;
14799;SDS011;7491;57.750;11.970;2022-12-01T01:04:05;8.65;;;5.72;;
14799;SDS011;7491;57.750;11.970;2022-12-01T01:06:32;9.98;;;6.22;;
14799;SDS011;7491;57.750;11.970;2022-12-01T01:08:58;7.20;;;4.88;;
14799;SDS011;7491;57.750;11.970;2022-12-01T01:11:25;7.32;;;4.93;;
14799;SDS011;7491;57.750;11.970;2022-12-01T01:13:51;7.80;;;6.05;;
14799;SDS011;7491;57.750;11.970;2022-12-01T01:16:20;6.93;;;5.00;;
14799;SDS011;7491;57.750;11.970;2022-12-01T01:18:47;7.03;;;5.00;;
14799;SDS011;7491;57.750;11.970;2022-12-01T01:21:15;7.40;;;5.60;;
14799;SDS011;7491;57.750;11.970;2022-12-01T01:23:44;7.45;;;5.15;;
14799;SDS011;7491;57.750;11.970;2022-12-01T01:26:11;6.78;;;5.32;;
14799;SDS011;7491;57.750;11.970;2022-12-01T01:28:39;7.22;;;5.45;;
14799;SDS011;7491;57.750;11.970;2022-12-01T01:31:07;7.70;;;5.13;;
14799;SDS011;7491;57.750;11.970;2022-12-01T01:33:36;7.65;;;4.95;;
14799;SDS011;7491;57.750;11.970;2022-12-01T01:36:03;6.82;;;5.22;;
14799;SDS011;7491;57.750;11.970;2022-12-01T01:38:30;7.43;;;6.60;;
14799;SDS011;7491;57.750;11.970;2022-12-01T01:40:57;6.78;;;5.30;;
14799;SDS011;7491;57.750;11.970;2022-12-01T01:43:37;5.97;;;4.90;;
14799;SDS011;7491;57.750;11.970;2022-12-01T01:46:07;7.30;;;4.85;;
14799;SDS011;7491;57.750;11.970;2022-12-01T01:48:37;7.22;;;5.25;;
14799;SDS011;7491;57.750;11.970;2022-12-01T01:51:07;4.57;;;4.15;;
14799;SDS011;7491;57.750;11.970;2022-12-01T01:53:36;7.07;;;4.40;;
14799;SDS011;7491;57.750;11.970;2022-12-01T01:56:04;5.82;;;4.55;;
14799;SDS011;7491;57.750;11.970;2022-12-01T01:58:33;6.30;;;4.70;;
14799;SDS011;7491;57.750;11.970;2022-12-01T02:01:02;8.55;;;4.65;;
14799;SDS011;7491;57.750;11.970;2022-12-01T02:03:28;5.13;;;3.95;;
14799;SDS011;7491;57.750;11.970;2022-12-01T02:05:57;5.57;;;4.50;;
14799;SDS011;7491;57.750;11.970;2022-12-01T02:08:24;6.18;;;4.38;;
14799;SDS011;7491;57.750;11.970;2022-12-01T02:11:04;5.63;;;4.38;;
14799;SDS011;7491;57.750;11.970;2022-12-01T02:13:49;4.57;;;3.70;;
14799;SDS011;7491;57.750;11.970;2022-12-01T02:16:30;6.80;;;4.45;;
14799;SDS011;7491;57.750;11.970;2022-12-01T02:19:08;4.97;;;4.13;;
14799;SDS011;7491;57.750;11.970;2022-12-01T02:21:53;6.63;;;3.70;;
14799;SDS011;7491;57.750;11.970;2022-12-01T02:28:04;6.22;;;4.10;;
14799;SDS011;7491;57.750;11.970;2022-12-01T02:30:42;5.80;;;4.63;;
14799;SDS011;7491;57.750;11.970;2022-12-01T02:33:13;6.03;;;4.15;;
14799;SDS011;7491;57.750;11.970;2022-12-01T02:35:45;6.03;;;4.40;;
14799;SDS011;7491;57.750;11.970;2022-12-01T02:38:18;5.93;;;3.90;;
14799;SDS011;7491;57.750;11.970;2022-12-01T02:40:51;5.75;;;4.32;;
14799;SDS011;7491;57.750;11.970;2022-12-01T02:43:21;4.95;;;4.00;;
14799;SDS011;7491;57.750;11.970;2022-12-01T02:45:56;7.63;;;4.20;;
14799;SDS011;7491;57.750;11.970;2022-12-01T02:48:28;5.65;;;3.92;;
14799;SDS011;7491;57.750;11.970;2022-12-01T02:50:58;6.10;;;4.03;;
14799;SDS011;7491;57.750;11.970;2022-12-01T02:53:29;4.68;;;3.95;;
14799;SDS011;7491;57.750;11.970;2022-12-01T02:55:57;6.00;;;4.07;;
14799;SDS011;7491;57.750;11.970;2022-12-01T02:58:23;6.82;;;4.93;;
14799;SDS011;7491;57.750;11.970;2022-12-01T03:00:58;6.90;;;4.25;;
14799;SDS011;7491;57.750;11.970;2022-12-01T03:03:39;6.28;;;4.35;;
14799;SDS011;7491;57.750;11.970;2022-12-01T03:06:17;6.03;;;3.92;;
14799;SDS011;7491;57.750;11.970;2022-12-01T03:08:50;5.03;;;4.22;;
14799;SDS011;7491;57.750;11.970;2022-12-01T03:11:22;6.90;;;4.28;;
14799;SDS011;7491;57.750;11.970;2022-12-01T03:14:00;7.05;;;4.55;;
14799;SDS011;7491;57.750;11.970;2022-12-01T03:16:43;5.80;;;4.78;;
14799;SDS011;7491;57.750;11.970;2022-12-01T03:19:15;6.93;;;4.35;;
14799;SDS011;7491;57.750;11.970;2022-12-01T03:21:48;5.65;;;4.32;;
14799;SDS011;7491;57.750;11.970;2022-12-01T03:24:20;5.55;;;4.65;;
14799;SDS011;7491;57.750;11.970;2022-12-01T03:26:50;5.32;;;4.60;;
14799;SDS011;7491;57.750;11.970;2022-12-01T03:29:23;6.95;;;4.22;;
14799;SDS011;7491;57.750;11.970;2022-12-01T03:31:53;6.32;;;4.35;;
14799;SDS011;7491;57.750;11.970;2022-12-01T03:34:25;9.00;;;4.65;;
14799;SDS011;7491;57.750;11.970;2022-12-01T03:36:57;5.30;;;4.43;;
14799;SDS011;7491;57.750;11.970;2022-12-01T03:39:29;7.07;;;4.05;;
14799;SDS011;7491;57.750;11.970;2022-12-01T03:41:59;8.63;;;4.60;;
14799;SDS011;7491;57.750;11.970;2022-12-01T03:44:29;8.20;;;4.72;;
14799;SDS011;7491;57.750;11.970;2022-12-01T03:47:02;8.80;;;5.30;;
14799;SDS011;7491;57.750;11.970;2022-12-01T03:49:32;7.13;;;4.68;;
14799;SDS011;7491;57.750;11.970;2022-12-01T03:52:04;7.75;;;5.00;;
14799;SDS011;7491;57.750;11.970;2022-12-01T03:54:39;7.03;;;4.60;;
14799;SDS011;7491;57.750;11.970;2022-12-01T03:57:12;7.90;;;4.80;;
14799;SDS011;7491;57.750;11.970;2022-12-01T03:59:42;7.85;;;5.07;;
14799;SDS011;7491;57.750;11.970;2022-12-01T04:02:12;8.00;;;5.43;;
14799;SDS011;7491;57.750;11.970;2022-12-01T04:04:38;7.30;;;5.20;;
14799;SDS011;7491;57.750;11.970;2022-12-01T04:07:05;7.40;;;5.35;;
14799;SDS011;7491;57.750;11.970;2022-12-01T04:09:37;8.68;;;5.85;;
14799;SDS011;7491;57.750;11.970;2022-12-01T04:12:04;9.18;;;6.00;;
14799;SDS011;7491;57.750;11.970;2022-12-01T04:14:48;9.45;;;5.85;;
14799;SDS011;7491;57.750;11.970;2022-12-01T04:17:16;7.43;;;5.68;;
14799;SDS011;7491;57.750;11.970;2022-12-01T04:19:43;8.73;;;5.97;;
14799;SDS011;7491;57.750;11.970;2022-12-01T04:22:09;9.93;;;6.13;;
14799;SDS011;7491;57.750;11.970;2022-12-01T04:24:36;11.00;;;6.20;;
14799;SDS011;7491;57.750;11.970;2022-12-01T04:27:03;11.18;;;7.15;;
14799;SDS011;7491;57.750;11.970;2022-12-01T04:29:29;8.40;;;6.20;;
14799;SDS011;7491;57.750;11.970;2022-12-01T04:31:57;8.43;;;6.30;;
14799;SDS011;7491;57.750;11.970;2022-12-01T04:34:25;10.55;;;6.72;;
14799;SDS011;7491;57.750;11.970;2022-12-01T04:36:51;13.82;;;6.68;;
14799;SDS011;7491;57.750;11.970;2022-12-01T04:39:18;10.55;;;6.72;;
14799;SDS011;7491;57.750;11.970;2022-12-01T04:41:45;12.52;;;7.82;;
14799;SDS011;7491;57.750;11.970;2022-12-01T04:44:11;10.52;;;7.10;;
14799;SDS011;7491;57.750;11.970;2022-12-01T04:46:38;9.45;;;6.72;;
14799;SDS011;7491;57.750;11.970;2022-12-01T04:49:05;13.85;;;7.68;;
14799;SDS011;7491;57.750;11.970;2022-12-01T04:51:33;10.85;;;7.20;;
14799;SDS011;7491;57.750;11.970;2022-12-01T04:54:00;11.00;;;7.10;;
14799;SDS011;7491;57.750;11.970;2022-12-01T04:56:27;10.00;;;7.45;;
14799;SDS011;7491;57.750;11.970;2022-12-01T04:58:54;11.38;;;7.00;;
14799;SDS011;7491;57.750;11.970;2022-12-01T05:01:20;11.27;;;6.75;;
14799;SDS011;7491;57.750;11.970;2022-12-01T05:03:47;11.13;;;7.40;;
14799;SDS011;7491;57.750;11.970;2022-12-01T05:06:15;10.57;;;7.00;;
14799;SDS011;7491;57.750;11.970;2022-12-01T05:08:45;10.38;;;6.65;;
14799;SDS011;7491;57.750;11.970;2022-12-01T05:11:12;11.80;;;6.75;;
14799;SDS011;7491;57.750;11.970;2022-12-01T05:13:40;11.02;;;7.18;;
14799;SDS011;7491;57.750;11.970;2022-12-01T05:16:09;12.40;;;9.00;;
14799;SDS011;7491;57.750;11.970;2022-12-01T05:18:37;10.15;;;7.30;;
14799;SDS011;7491;57.750;11.970;2022-12-01T05:21:05;12.52;;;6.60;;
14799;SDS011;7491;57.750;11.970;2022-12-01T05:23:33;12.18;;;6.90;;
14799;SDS011;7491;57.750;11.970;2022-12-01T05:26:03;11.52;;;7.10;;
14799;SDS011;7491;57.750;11.970;2022-12-01T05:28:31;9.85;;;7.13;;
14799;SDS011;7491;57.750;11.970;2022-12-01T05:30:58;13.75;;;7.65;;
14799;SDS011;7491;57.750;11.970;2022-12-01T05:33:25;11.40;;;7.35;;
14799;SDS011;7491;57.750;11.970;2022-12-01T05:35:52;12.23;;;7.15;;
14799;SDS011;7491;57.750;11.970;2022-12-01T05:38:20;13.43;;;7.15;;
14799;SDS011;7491;57.750;11.970;2022-12-01T05:40:50;11.63;;;7.53;;
14799;SDS011;7491;57.750;11.970;2022-12-01T05:43:18;10.20;;;6.28;;
14799;SDS011;7491;57.750;11.970;2022-12-01T05:45:46;10.55;;;7.30;;
14799;SDS011;7491;57.750;11.970;2022-12-01T05:48:13;11.45;;;7.50;;
14799;SDS011;7491;57.750;11.970;2022-12-01T05:50:41;12.60;;;7.78;;
14799;SDS011;7491;57.750;11.970;2022-12-01T05:53:08;8.68;;;6.50;;
14799;SDS011;7491;57.750;11.970;2022-12-01T05:55:36;10.13;;;7.15;;
14799;SDS011;7491;57.750;11.970;2022-12-01T05:58:02;13.45;;;6.47;;
14799;SDS011;7491;57.750;11.970;2022-12-01T06:00:30;11.27;;;7.32;;
14799;SDS011;7491;57.750;11.970;2022-12-01T06:02:57;11.48;;;6.72;;
14799;SDS011;7491;57.750;11.970;2022-12-01T06:05:24;10.65;;;7.03;;
14799;SDS011;7491;57.750;11.970;2022-12-01T06:07:50;9.82;;;6.25;;
14799;SDS011;7491;57.750;11.970;2022-12-01T06:10:17;12.52;;;8.10;;
14799;SDS011;7491;57.750;11.970;2022-12-01T06:12:43;14.15;;;7.80;;
14799;SDS011;7491;57.750;11.970;2022-12-01T06:15:10;13.40;;;8.98;;
14799;SDS011;7491;57.750;11.970;2022-12-01T06:17:39;12.25;;;8.32;;
14799;SDS011;7491;57.750;11.970;2022-12-01T06:20:06;13.68;;;8.93;;
14799;SDS011;7491;57.750;11.970;2022-12-01T06:22:34;12.75;;;6.97;;
14799;SDS011;7491;57.750;11.970;2022-12-01T06:25:01;11.88;;;6.68;;
14799;SDS011;7491;57.750;11.970;2022-12-01T06:27:27;14.13;;;7.15;;
14799;SDS011;7491;57.750;11.970;2022-12-01T06:29:54;10.02;;;6.63;;
14799;SDS011;7491;57.750;11.970;2022-12-01T06:32:20;10.77;;;7.28;;
14799;SDS011;7491;57.750;11.970;2022-12-01T06:34:48;12.48;;;6.72;;
14799;SDS011;7491;57.750;11.970;2022-12-01T06:37:15;13.30;;;7.18;;
14799;SDS011;7491;57.750;11.970;2022-12-01T06:39:42;13.10;;;7.63;;
14799;SDS011;7491;57.750;11.970;2022-12-01T06:42:08;13.52;;;8.25;;
14799;SDS011;7491;57.750;11.970;2022-12-01T06:44:36;14.38;;;7.88;;
14799;SDS011;7491;57.750;11.970;2022-12-01T06:47:02;15.13;;;8.45;;
14799;SDS011;7491;57.750;11.970;2022-12-01T06:49:29;17.17;;;8.13;;
14799;SDS011;7491;57.750;11.970;2022-12-01T06:51:57;14.20;;;7.93;;
14799;SDS011;7491;57.750;11.970;2022-12-01T06:54:24;47.95;;;22.55;;
14799;SDS011;7491;57.750;11.970;2022-12-01T06:56:50;12.75;;;7.13;;
14799;SDS011;7491;57.750;11.970;2022-12-01T06:59:17;14.02;;;7.65;;
14799;SDS011;7491;57.750;11.970;2022-12-01T07:01:44;13.07;;;7.53;;
14799;SDS011;7491;57.750;11.970;2022-12-01T07:04:10;11.55;;;7.30;;
14799;SDS011;7491;57.750;11.970;2022-12-01T07:06:37;12.07;;;7.18;;
14799;SDS011;7491;57.750;11.970;2022-12-01T07:09:05;13.13;;;7.93;;
14799;SDS011;7491;57.750;11.970;2022-12-01T07:11:31;11.40;;;7.28;;
14799;SDS011;7491;57.750;11.970;2022-12-01T07:14:00;10.77;;;7.07;;
14799;SDS011;7491;57.750;11.970;2022-12-01T07:16:27;11.73;;;6.88;;
14799;SDS011;7491;57.750;11.970;2022-12-01T07:18:53;15.85;;;8.00;;
14799;SDS011;7491;57.750;11.970;2022-12-01T07:21:20;18.85;;;8.10;;
14799;SDS011;7491;57.750;11.970;2022-12-01T07:23:47;10.88;;;7.22;;
14799;SDS011;7491;57.750;11.970;2022-12-01T07:26:16;13.55;;;6.88;;
14799;SDS011;7491;57.750;11.970;2022-12-01T07:28:43;11.30;;;6.82;;
14799;SDS011;7491;57.750;11.970;2022-12-01T07:31:11;11.50;;;7.43;;
14799;SDS011;7491;57.750;11.970;2022-12-01T07:33:38;14.63;;;7.25;;
14799;SDS011;7491;57.750;11.970;2022-12-01T07:36:06;11.27;;;7.57;;
14799;SDS011;7491;57.750;11.970;2022-12-01T07:38:33;14.88;;;9.45;;
14799;SDS011;7491;57.750;11.970;2022-12-01T07:41:01;13.80;;;7.15;;
14799;SDS011;7491;57.750;11.970;2022-12-01T07:43:30;11.50;;;7.50;;
14799;SDS011;7491;57.750;11.970;2022-12-01T07:46:01;13.75;;;7.80;;
14799;SDS011;7491;57.750;11.970;2022-12-01T07:48:29;12.82;;;7.40;;
14799;SDS011;7491;57.750;11.970;2022-12-01T07:50:55;12.82;;;7.40;;
14799;SDS011;7491;57.750;11.970;2022-12-01T07:53:22;12.52;;;7.57;;
14799;SDS011;7491;57.750;11.970;2022-12-01T07:55:49;12.07;;;7.13;;
14799;SDS011;7491;57.750;11.970;2022-12-01T07:58:15;13.55;;;7.60;;
14799;SDS011;7491;57.750;11.970;2022-12-01T08:00:44;13.48;;;7.82;;
14799;SDS011;7491;57.750;11.970;2022-12-01T08:03:10;10.55;;;7.25;;
14799;SDS011;7491;57.750;11.970;2022-12-01T08:05:37;12.55;;;7.65;;
14799;SDS011;7491;57.750;11.970;2022-12-01T08:08:04;11.55;;;7.18;;
14799;SDS011;7491;57.750;11.970;2022-12-01T08:10:30;17.23;;;8.35;;
14799;SDS011;7491;57.750;11.970;2022-12-01T08:12:57;12.93;;;8.18;;
14799;SDS011;7491;57.750;11.970;2022-12-01T08:15:24;15.05;;;9.00;;
14799;SDS011;7491;57.750;11.970;2022-12-01T08:17:52;17.05;;;9.52;;
14799;SDS011;7491;57.750;11.970;2022-12-01T08:20:18;19.38;;;9.48;;
14799;SDS011;7491;57.750;11.970;2022-12-01T08:22:46;16.88;;;9.52;;
14799;SDS011;7491;57.750;11.970;2022-12-01T08:25:12;15.98;;;8.80;;
14799;SDS011;7491;57.750;11.970;2022-12-01T08:27:39;16.60;;;9.32;;
14799;SDS011;7491;57.750;11.970;2022-12-01T08:30:06;14.98;;;9.27;;
14799;SDS011;7491;57.750;11.970;2022-12-01T08:32:33;17.45;;;8.55;;
14799;SDS011;7491;57.750;11.970;2022-12-01T08:35:01;15.02;;;8.55;;
14799;SDS011;7491;57.750;11.970;2022-12-01T08:37:28;13.98;;;8.80;;
14799;SDS011;7491;57.750;11.970;2022-12-01T08:39:55;15.77;;;8.40;;
14799;SDS011;7491;57.750;11.970;2022-12-01T08:42:21;13.77;;;8.52;;
14799;SDS011;7491;57.750;11.970;2022-12-01T08:44:48;15.63;;;9.10;;
14799;SDS011;7491;57.750;11.970;2022-12-01T08:47:14;14.57;;;7.95;;
14799;SDS011;7491;57.750;11.970;2022-12-01T08:49:41;14.05;;;8.65;;
14799;SDS011;7491;57.750;11.970;2022-12-01T08:52:09;20.38;;;14.02;;
14799;SDS011;7491;57.750;11.970;2022-12-01T08:54:36;15.13;;;8.63;;
14799;SDS011;7491;57.750;11.970;2022-12-01T08:57:02;12.77;;;9.18;;
14799;SDS011;7491;57.750;11.970;2022-12-01T08:59:29;17.23;;;9.80;;
14799;SDS011;7491;57.750;11.970;2022-12-01T09:01:55;13.70;;;8.13;;
14799;SDS011;7491;57.750;11.970;2022-12-01T09:04:23;13.85;;;8.77;;
14799;SDS011;7491;57.750;11.970;2022-12-01T09:06:51;14.00;;;9.07;;
14799;SDS011;7491;57.750;11.970;2022-12-01T09:09:21;14.13;;;9.55;;
14799;SDS011;7491;57.750;11.970;2022-12-01T09:11:48;12.90;;;9.32;;
14799;SDS011;7491;57.750;11.970;2022-12-01T09:14:17;15.98;;;9.20;;
14799;SDS011;7491;57.750;11.970;2022-12-01T09:16:45;13.32;;;7.90;;
14799;SDS011;7491;57.750;11.970;2022-12-01T09:19:14;15.18;;;9.13;;
14799;SDS011;7491;57.750;11.970;2022-12-01T09:21:42;14.30;;;9.93;;
14799;SDS011;7491;57.750;11.970;2022-12-01T09:24:10;11.15;;;8.45;;
14799;SDS011;7491;57.750;11.970;2022-12-01T09:26:39;13.32;;;9.27;;
14799;SDS011;7491;57.750;11.970;2022-12-01T09:29:06;13.10;;;8.15;;
14799;SDS011;7491;57.750;11.970;2022-12-01T09:31:34;12.13;;;7.53;;
14799;SDS011;7491;57.750;11.970;2022-12-01T09:34:02;14.13;;;8.40;;
14799;SDS011;7491;57.750;11.970;2022-12-01T09:36:30;10.13;;;6.55;;
14799;SDS011;7491;57.750;11.970;2022-12-01T09:38:58;9.27;;;6.88;;
14799;SDS011;7491;57.750;11.970;2022-12-01T09:41:26;15.15;;;8.48;;
14799;SDS011;7491;57.750;11.970;2022-12-01T09:44:00;9.80;;;7.22;;
14799;SDS011;7491;57.750;11.970;2022-12-01T09:46:31;12.80;;;7.95;;
14799;SDS011;7491;57.750;11.970;2022-12-01T09:49:02;12.50;;;7.97;;
14799;SDS011;7491;57.750;11.970;2022-12-01T09:51:29;14.25;;;7.75;;
14799;SDS011;7491;57.750;11.970;2022-12-01T09:54:00;10.38;;;7.05;;
14799;SDS011;7491;57.750;11.970;2022-12-01T09:56:27;11.20;;;7.50;;
14799;SDS011;7491;57.750;11.970;2022-12-01T09:58:56;12.80;;;7.68;;
14799;SDS011;7491;57.750;11.970;2022-12-01T10:01:28;11.25;;;7.25;;
14799;SDS011;7491;57.750;11.970;2022-12-01T10:03:58;12.20;;;10.57;;
14799;SDS011;7491;57.750;11.970;2022-12-01T10:06:32;12.45;;;8.85;;
14799;SDS011;7491;57.750;11.970;2022-12-01T10:09:04;13.30;;;8.02;;
14799;SDS011;7491;57.750;11.970;2022-12-01T10:11:40;11.23;;;7.38;;
14799;SDS011;7491;57.750;11.970;2022-12-01T10:14:10;10.48;;;7.68;;
14799;SDS011;7491;57.750;11.970;2022-12-01T10:16:43;10.70;;;7.43;;
14799;SDS011;7491;57.750;11.970;2022-12-01T10:19:14;13.15;;;8.57;;
14799;SDS011;7491;57.750;11.970;2022-12-01T10:21:58;11.20;;;7.35;;
14799;SDS011;7491;57.750;11.970;2022-12-01T10:24:38;12.02;;;7.60;;
14799;SDS011;7491;57.750;11.970;2022-12-01T10:27:18;11.73;;;8.00;;
14799;SDS011;7491;57.750;11.970;2022-12-01T10:29:56;12.35;;;7.85;;
14799;SDS011;7491;57.750;11.970;2022-12-01T10:32:37;13.30;;;8.35;;
14799;SDS011;7491;57.750;11.970;2022-12-01T10:35:10;11.40;;;7.95;;
14799;SDS011;7491;57.750;11.970;2022-12-01T10:37:45;12.35;;;9.02;;
14799;SDS011;7491;57.750;11.970;2022-12-01T10:40:15;13.40;;;8.20;;
14799;SDS011;7491;57.750;11.970;2022-12-01T10:42:44;11.05;;;7.45;;
14799;SDS011;7491;57.750;11.970;2022-12-01T10:45:13;10.50;;;7.18;;
14799;SDS011;7491;57.750;11.970;2022-12-01T10:50:34;12.43;;;8.38;;
14799;SDS011;7491;57.750;11.970;2022-12-01T10:53:02;11.77;;;8.30;;
14799;SDS011;7491;57.750;11.970;2022-12-01T10:55:30;11.50;;;7.47;;
14799;SDS011;7491;57.750;11.970;2022-12-01T10:57:59;11.05;;;7.18;;
14799;SDS011;7491;57.750;11.970;2022-12-01T11:00:29;11.85;;;8.60;;
14799;SDS011;7491;57.750;11.970;2022-12-01T11:02:59;9.15;;;6.55;;
14799;SDS011;7491;57.750;11.970;2022-12-01T11:05:27;10.75;;;7.20;;
14799;SDS011;7491;57.750;11.970;2022-12-01T11:07:57;10.95;;;7.72;;
14799;SDS011;7491;57.750;11.970;2022-12-01T11:10:25;12.18;;;7.47;;
14799;SDS011;7491;57.750;11.970;2022-12-01T11:12:53;9.93;;;7.13;;
14799;SDS011;7491;57.750;11.970;2022-12-01T11:15:22;13.68;;;7.75;;
14799;SDS011;7491;57.750;11.970;2022-12-01T11:17:55;10.63;;;7.22;;
14799;SDS011;7491;57.750;11.970;2022-12-01T11:20:29;9.30;;;7.00;;
14799;SDS011;7491;57.750;11.970;2022-12-01T11:25:56;11.32;;;7.15;;
14799;SDS011;7491;57.750;11.970;2022-12-01T11:28:26;11.32;;;7.63;;
14799;SDS011;7491;57.750;11.970;2022-12-01T11:30:54;8.68;;;6.80;;
14799;SDS011;7491;57.750;11.970;2022-12-01T11:33:23;9.75;;;6.63;;
14799;SDS011;7491;57.750;11.970;2022-12-01T11:35:51;10.10;;;6.93;;
14799;SDS011;7491;57.750;11.970;2022-12-01T11:38:19;11.35;;;6.70;;
14799;SDS011;7491;57.750;11.970;2022-12-01T11:40:47;10.55;;;6.53;;
14799;SDS011;7491;57.750;11.970;2022-12-01T11:43:21;10.10;;;6.07;;
14799;SDS011;7491;57.750;11.970;2022-12-01T11:45:50;7.32;;;5.18;;
14799;SDS011;7491;57.750;11.970;2022-12-01T11:48:22;8.20;;;5.70;;
14799;SDS011;7491;57.750;11.970;2022-12-01T11:51:02;8.73;;;6.10;;
14799;SDS011;7491;57.750;11.970;2022-12-01T11:53:32;7.93;;;5.93;;
14799;SDS011;7491;57.750;11.970;2022-12-01T11:56:13;7.00;;;5.57;;
14799;SDS011;7491;57.750;11.970;2022-12-01T11:58:43;6.53;;;5.45;;
14799;SDS011;7491;57.750;11.970;2022-12-01T12:01:17;7.55;;;5.75;;
14799;SDS011;7491;57.750;11.970;2022-12-01T12:03:50;8.40;;;5.30;;
14799;SDS011;7491;57.750;11.970;2022-12-01T12:06:28;7.45;;;5.28;;
14799;SDS011;7491;57.750;11.970;2022-12-01T12:09:13;5.93;;;4.32;;
14799;SDS011;7491;57.750;11.970;2022-12-01T12:11:50;6.50;;;5.10;;
14799;SDS011;7491;57.750;11.970;2022-12-01T12:14:28;6.30;;;4.95;;
14799;SDS011;7491;57.750;11.970;2022-12-01T12:17:10;7.32;;;4.32;;
14799;SDS011;7491;57.750;11.970;2022-12-01T12:19:57;7.88;;;6.00;;
14799;SDS011;7491;57.750;11.970;2022-12-01T12:22:48;8.50;;;5.63;;
14799;SDS011;7491;57.750;11.970;2022-12-01T12:25:26;6.20;;;4.85;;
14799;SDS011;7491;57.750;11.970;2022-12-01T12:28:07;8.23;;;3.75;;
14799;SDS011;7491;57.750;11.970;2022-12-01T12:30:46;5.47;;;4.30;;
14799;SDS011;7491;57.750;11.970;2022-12-01T12:33:29;6.13;;;4.63;;
14799;SDS011;7491;57.750;11.970;2022-12-01T12:36:14;5.18;;;4.35;;
14799;SDS011;7491;57.750;11.970;2022-12-01T12:38:51;5.32;;;4.78;;
14799;SDS011;7491;57.750;11.970;2022-12-01T12:41:29;4.53;;;3.80;;
14799;SDS011;7491;57.750;11.970;2022-12-01T12:44:08;4.35;;;3.78;;
14799;SDS011;7491;57.750;11.970;2022-12-01T12:46:52;4.40;;;3.60;;
14799;SDS011;7491;57.750;11.970;2022-12-01T12:49:30;4.60;;;4.18;;
14799;SDS011;7491;57.750;11.970;2022-12-01T12:52:06;5.13;;;4.60;;
14799;SDS011;7491;57.750;11.970;2022-12-01T12:54:42;4.38;;;3.97;;
14799;SDS011;7491;57.750;11.970;2022-12-01T12:57:16;5.30;;;4.30;;
14799;SDS011;7491;57.750;11.970;2022-12-01T12:59:48;5.55;;;4.18;;
14799;SDS011;7491;57.750;11.970;2022-12-01T13:02:19;6.05;;;4.75;;
14799;SDS011;7491;57.750;11.970;2022-12-01T13:04:53;4.90;;;4.40;;
14799;SDS011;7491;57.750;11.970;2022-12-01T13:07:27;5.10;;;4.35;;
14799;SDS011;7491;57.750;11.970;2022-12-01T13:10:02;5.20;;;4.70;;
14799;SDS011;7491;57.750;11.970;2022-12-01T13:12:38;4.72;;;3.85;;
14799;SDS011;7491;57.750;11.970;2022-12-01T13:15:12;5.50;;;4.55;;
14799;SDS011;7491;57.750;11.970;2022-12-01T13:17:42;5.32;;;4.40;;
14799;SDS011;7491;57.750;11.970;2022-12-01T13:20:12;5.22;;;4.55;;
14799;SDS011;7491;57.750;11.970;2022-12-01T13:22:41;5.90;;;4.40;;
14799;SDS011;7491;57.750;11.970;2022-12-01T13:25:11;7.07;;;3.63;;
14799;SDS011;7491;57.750;11.970;2022-12-01T13:27:40;5.00;;;4.43;;
14799;SDS011;7491;57.750;11.970;2022-12-01T13:30:25;5.97;;;4.45;;
14799;SDS011;7491;57.750;11.970;2022-12-01T13:32:59;6.30;;;4.72;;
14799;SDS011;7491;57.750;11.970;2022-12-01T13:35:28;6.18;;;4.85;;
14799;SDS011;7491;57.750;11.970;2022-12-01T13:38:15;4.95;;;4.45;;
14799;SDS011;7491;57.750;11.970;2022-12-01T13:40:47;4.88;;;4.22;;
14799;SDS011;7491;57.750;11.970;2022-12-01T13:43:15;5.20;;;4.55;;
14799;SDS011;7491;57.750;11.970;2022-12-01T13:45:44;4.70;;;3.70;;
14799;SDS011;7491;57.750;11.970;2022-12-01T13:48:25;5.47;;;4.50;;
14799;SDS011;7491;57.750;11.970;2022-12-01T13:50:58;5.68;;;5.07;;
14799;SDS011;7491;57.750;11.970;2022-12-01T13:53:27;6.82;;;4.65;;
14799;SDS011;7491;57.750;11.970;2022-12-01T13:56:02;5.32;;;4.25;;
14799;SDS011;7491;57.750;11.970;2022-12-01T13:58:42;6.47;;;5.03;;
14799;SDS011;7491;57.750;11.970;2022-12-01T14:04:26;5.60;;;4.90;;
14799;SDS011;7491;57.750;11.970;2022-12-01T14:09:55;4.18;;;3.78;;
14799;SDS011;7491;57.750;11.970;2022-12-01T14:12:32;7.30;;;4.57;;
14799;SDS011;7491;57.750;11.970;2022-12-01T14:15:03;7.35;;;5.20;;
14799;SDS011;7491;57.750;11.970;2022-12-01T14:17:44;6.75;;;4.18;;
14799;SDS011;7491;57.750;11.970;2022-12-01T14:20:16;4.82;;;4.15;;
14799;SDS011;7491;57.750;11.970;2022-12-01T14:22:47;4.45;;;3.92;;
14799;SDS011;7491;57.750;11.970;2022-12-01T14:25:29;7.15;;;5.32;;
14799;SDS011;7491;57.750;11.970;2022-12-01T14:27:58;7.22;;;4.88;;
14799;SDS011;7491;57.750;11.970;2022-12-01T14:36:32;5.45;;;4.88;;
14799;SDS011;7491;57.750;11.970;2022-12-01T14:39:04;4.22;;;3.83;;
14799;SDS011;7491;57.750;11.970;2022-12-01T14:41:37;4.72;;;3.72;;
14799;SDS011;7491;57.750;11.970;2022-12-01T14:44:11;4.90;;;3.83;;
14799;SDS011;7491;57.750;11.970;2022-12-01T14:46:44;5.45;;;4.45;;
14799;SDS011;7491;57.750;11.970;2022-12-01T14:49:27;4.82;;;4.00;;
14799;SDS011;7491;57.750;11.970;2022-12-01T14:51:57;4.97;;;4.22;;
14799;SDS011;7491;57.750;11.970;2022-12-01T14:54:31;4.40;;;3.85;;
14799;SDS011;7491;57.750;11.970;2022-12-01T14:57:00;4.70;;;4.03;;
14799;SDS011;7491;57.750;11.970;2022-12-01T14:59:33;4.75;;;3.95;;
14799;SDS011;7491;57.750;11.970;2022-12-01T15:02:01;4.90;;;4.03;;
14799;SDS011;7491;57.750;11.970;2022-12-01T15:04:33;4.60;;;4.00;;
14799;SDS011;7491;57.750;11.970;2022-12-01T15:07:00;6.93;;;4.93;;
14799;SDS011;7491;57.750;11.970;2022-12-01T15:09:27;4.55;;;3.95;;
14799;SDS011;7491;57.750;11.970;2022-12-01T15:11:54;8.27;;;6.68;;
14799;SDS011;7491;57.750;11.970;2022-12-01T15:14:24;4.68;;;3.78;;
14799;SDS011;7491;57.750;11.970;2022-12-01T15:16:56;5.40;;;4.47;;
14799;SDS011;7491;57.750;11.970;2022-12-01T15:19:31;5.13;;;4.40;;